createdAt,value
2022-12-03T00:01:22.403Z,5.12
2022-12-03T00:03:51.796Z,5.32
2022-12-03T00:06:19.779Z,5.35
2022-12-03T00:08:47.800Z,5.25
2022-12-03T00:11:15.681Z,5.24
2022-12-03T00:13:43.518Z,5.20
2022-12-03T00:16:11.466Z,5.32
2022-12-03T00:18:39.381Z,5.22
2022-12-03T00:21:08.713Z,5.07
2022-12-03T00:23:41.776Z,5.21
2022-12-03T00:26:10.254Z,5.10
2022-12-03T00:28:38.231Z,5.13
2022-12-03T00:31:06.522Z,5.04
2022-12-03T00:33:34.520Z,5.27
2022-12-03T00:36:02.463Z,5.36
2022-12-03T00:38:31.726Z,5.34
2022-12-03T00:40:59.642Z,5.30
2022-12-03T00:43:27.583Z,5.06
2022-12-03T00:45:55.466Z,5.05
2022-12-03T00:48:23.343Z,4.87
2022-12-03T00:50:51.412Z,4.74
2022-12-03T00:53:19.547Z,4.65
2022-12-03T00:55:50.661Z,4.64
2022-12-03T00:58:18.956Z,4.80
2022-12-03T01:00:46.975Z,4.88
2022-12-03T01:03:14.907Z,4.77
2022-12-03T01:05:42.906Z,4.89
2022-12-03T01:08:11.521Z,5.14
2022-12-03T01:10:39.428Z,5.06
2022-12-03T01:13:08.788Z,5.35
2022-12-03T01:15:36.752Z,5.42
2022-12-03T01:18:04.697Z,5.50
2022-12-03T01:20:32.625Z,5.12
2022-12-03T01:23:00.545Z,5.28
2022-12-03T01:25:28.431Z,5.24
2022-12-03T01:27:56.312Z,5.40
2022-12-03T01:30:25.574Z,5.29
2022-12-03T01:32:52.497Z,5.54
2022-12-03T01:35:20.366Z,5.61
2022-12-03T01:37:48.231Z,5.68
2022-12-03T01:40:20.974Z,5.69
2022-12-03T01:42:49.106Z,5.84
2022-12-03T01:45:23.656Z,5.80
2022-12-03T01:47:53.001Z,5.84
2022-12-03T01:50:24.733Z,5.78
2022-12-03T01:52:55.274Z,5.85
2022-12-03T01:55:25.937Z,5.81
2022-12-03T01:57:56.875Z,5.81
2022-12-03T02:00:27.408Z,5.91
2022-12-03T02:02:58.370Z,5.96
2022-12-03T02:05:27.794Z,6.02
2022-12-03T02:07:56.528Z,5.87
2022-12-03T02:10:27.376Z,5.78
2022-12-03T02:12:59.054Z,5.77
2022-12-03T02:15:27.214Z,5.76
2022-12-03T02:17:57.130Z,5.87
2022-12-03T02:20:25.209Z,5.83
2022-12-03T02:23:01.154Z,5.82
2022-12-03T02:25:33.342Z,5.78
2022-12-03T02:28:02.665Z,5.81
2022-12-03T02:30:32.195Z,5.78
2022-12-03T02:33:01.086Z,5.79
2022-12-03T02:35:33.173Z,5.76
2022-12-03T02:38:06.092Z,5.81
2022-12-03T02:40:35.679Z,5.74
2022-12-03T02:43:04.778Z,5.68
2022-12-03T02:45:35.626Z,5.74
2022-12-03T02:48:07.707Z,5.71
2022-12-03T02:50:39.409Z,5.56
2022-12-03T02:53:10.587Z,5.70
2022-12-03T02:55:40.576Z,5.72
2022-12-03T02:58:08.539Z,5.73
2022-12-03T03:00:37.321Z,5.80
2022-12-03T03:03:07.592Z,5.84
2022-12-03T03:05:37.855Z,5.84
2022-12-03T03:08:06.863Z,5.71
2022-12-03T03:10:36.497Z,5.80
2022-12-03T03:13:09.912Z,5.85
2022-12-03T03:15:38.016Z,5.91
2022-12-03T03:18:06.850Z,5.80
2022-12-03T03:20:34.912Z,5.86
2022-12-03T03:23:08.017Z,5.75
2022-12-03T03:25:35.927Z,5.83
2022-12-03T03:28:05.661Z,5.94
2022-12-03T03:30:34.902Z,5.96
2022-12-03T03:33:03.049Z,5.86
2022-12-03T03:35:31.117Z,5.85
2022-12-03T03:37:59.986Z,5.83
2022-12-03T03:40:28.538Z,5.68
2022-12-03T03:42:57.879Z,5.75
2022-12-03T03:45:29.653Z,5.71
2022-12-03T03:47:59.272Z,5.59
2022-12-03T03:50:29.313Z,5.54
2022-12-03T03:52:58.582Z,5.40
2022-12-03T03:55:26.759Z,5.22
2022-12-03T03:57:54.811Z,5.35
2022-12-03T04:00:22.933Z,5.44
2022-12-03T04:02:53.545Z,5.53
2022-12-03T04:05:24.127Z,5.62
2022-12-03T04:07:52.193Z,5.57
2022-12-03T04:10:34.067Z,5.62
2022-12-03T04:13:02.760Z,5.57
2022-12-03T04:15:30.972Z,5.63
2022-12-03T04:18:17.696Z,5.70
2022-12-03T04:20:45.608Z,5.69
2022-12-03T04:23:12.554Z,5.32
2022-12-03T04:25:57.894Z,5.16
2022-12-03T04:28:43.323Z,5.05
2022-12-03T04:31:28.481Z,5.33
2022-12-03T04:34:15.130Z,5.13
2022-12-03T04:36:43.067Z,4.89
2022-12-03T04:39:10.963Z,4.76
2022-12-03T04:41:38.829Z,4.55
2022-12-03T04:44:24.173Z,4.49
2022-12-03T04:46:52.048Z,4.73
2022-12-03T04:49:21.406Z,4.78
2022-12-03T04:51:49.529Z,4.66
2022-12-03T04:54:17.374Z,4.77
2022-12-03T04:56:45.513Z,4.98
2022-12-03T04:59:16.422Z,5.10
2022-12-03T05:01:45.986Z,5.28
2022-12-03T05:04:14.460Z,5.34
2022-12-03T05:06:43.840Z,5.48
2022-12-03T05:09:12.651Z,5.49
2022-12-03T05:11:41.066Z,5.43
2022-12-03T05:14:09.388Z,5.30
2022-12-03T05:16:37.443Z,5.29
2022-12-03T05:19:06.393Z,5.03
2022-12-03T05:21:34.295Z,4.94
2022-12-03T05:24:03.940Z,5.24
2022-12-03T05:26:32.034Z,5.29
2022-12-03T05:28:59.974Z,5.24
2022-12-03T05:31:27.894Z,4.99
2022-12-03T05:33:55.846Z,4.83
2022-12-03T05:36:25.351Z,5.14
2022-12-03T05:38:53.236Z,5.21
2022-12-03T05:41:39.959Z,5.36
2022-12-03T05:44:07.872Z,5.29
2022-12-03T05:46:35.849Z,5.41
2022-12-03T05:49:03.894Z,5.48
2022-12-03T05:51:31.819Z,5.58
2022-12-03T05:53:59.701Z,5.62
2022-12-03T05:56:28.985Z,5.58
2022-12-03T05:58:56.827Z,5.68
2022-12-03T06:01:25.505Z,5.71
2022-12-03T06:03:53.665Z,5.64
2022-12-03T06:06:21.694Z,5.38
2022-12-03T06:08:49.974Z,5.26
2022-12-03T06:11:17.983Z,5.32
2022-12-03T06:13:47.438Z,5.38
2022-12-03T06:16:15.504Z,5.30
2022-12-03T06:18:44.046Z,5.38
2022-12-03T06:21:12.039Z,5.36
2022-12-03T06:23:44.760Z,5.56
2022-12-03T06:26:13.072Z,5.44
2022-12-03T06:28:45.708Z,5.45
2022-12-03T06:31:15.317Z,5.59
2022-12-03T06:33:43.485Z,5.61
2022-12-03T06:36:11.621Z,5.55
2022-12-03T06:38:39.837Z,5.49
2022-12-03T06:41:07.848Z,5.53
2022-12-03T06:43:35.851Z,5.59
2022-12-03T06:46:04.052Z,5.58
2022-12-03T06:48:33.616Z,5.63
2022-12-03T06:51:01.639Z,5.73
2022-12-03T06:53:29.856Z,5.85
2022-12-03T06:55:57.844Z,5.80
2022-12-03T06:58:25.919Z,5.94
2022-12-03T07:00:54.007Z,5.79
2022-12-03T07:03:22.116Z,5.81
2022-12-03T07:05:51.636Z,5.77
2022-12-03T07:08:19.773Z,5.75
2022-12-03T07:10:47.895Z,5.87
2022-12-03T07:13:16.119Z,5.83
2022-12-03T07:15:44.103Z,5.85
2022-12-03T07:18:12.221Z,5.88
2022-12-03T07:20:40.634Z,5.84
2022-12-03T07:23:10.426Z,5.79
2022-12-03T07:25:38.486Z,5.67
2022-12-03T07:28:06.524Z,5.68
2022-12-03T07:30:35.981Z,5.34
2022-12-03T07:33:03.984Z,5.22
2022-12-03T07:35:32.010Z,5.48
2022-12-03T07:38:00.037Z,5.42
2022-12-03T07:40:29.785Z,5.45
2022-12-03T07:42:57.819Z,5.11
2022-12-03T07:45:25.899Z,4.96
2022-12-03T07:47:53.846Z,5.13
2022-12-03T07:50:21.953Z,5.15
2022-12-03T07:52:49.992Z,5.32
2022-12-03T07:55:18.129Z,5.12
2022-12-03T07:57:47.682Z,4.87
2022-12-03T08:00:16.917Z,4.79
2022-12-03T08:02:45.043Z,4.88
2022-12-03T08:05:13.161Z,5.08
2022-12-03T08:07:41.209Z,4.97
2022-12-03T08:10:09.571Z,4.91
2022-12-03T08:12:42.959Z,4.94
2022-12-03T08:15:18.389Z,5.08
2022-12-03T08:17:48.192Z,5.11
2022-12-03T08:20:18.872Z,5.33
2022-12-03T08:22:49.383Z,5.35
2022-12-03T08:25:22.969Z,5.31
2022-12-03T08:27:52.417Z,5.49
2022-12-03T08:30:22.137Z,5.61
2022-12-03T08:32:50.576Z,5.51
2022-12-03T08:35:23.907Z,5.44
2022-12-03T08:37:58.932Z,5.66
2022-12-03T08:40:35.471Z,5.81
2022-12-03T08:43:08.029Z,5.69
2022-12-03T08:45:42.000Z,5.62
2022-12-03T08:48:34.115Z,5.62
2022-12-03T08:51:05.805Z,5.93
2022-12-03T08:53:37.019Z,5.93
2022-12-03T08:56:14.274Z,6.04
2022-12-03T08:58:44.404Z,6.04
2022-12-03T09:01:35.346Z,6.06
2022-12-03T09:04:21.580Z,6.12
2022-12-03T09:06:50.188Z,6.33
2022-12-03T09:09:18.536Z,6.42
2022-12-03T09:11:47.098Z,6.59
2022-12-03T09:14:18.467Z,6.68
2022-12-03T09:16:49.233Z,6.65
2022-12-03T09:19:17.498Z,6.58
2022-12-03T09:21:45.435Z,6.65
2022-12-03T09:24:13.859Z,6.76
2022-12-03T09:26:41.951Z,6.89
2022-12-03T09:29:12.397Z,6.93
2022-12-03T09:31:41.189Z,6.95
2022-12-03T09:34:11.043Z,6.97
2022-12-03T09:36:39.266Z,7.00
2022-12-03T09:39:07.768Z,7.08
2022-12-03T09:41:35.870Z,7.00
2022-12-03T09:44:05.229Z,7.09
2022-12-03T09:46:35.548Z,7.10
2022-12-03T09:49:04.738Z,7.24
2022-12-03T09:51:37.059Z,7.34
2022-12-03T09:54:07.633Z,7.39
2022-12-03T09:56:38.739Z,7.39
2022-12-03T09:59:08.236Z,7.30
2022-12-03T10:01:36.295Z,7.35
2022-12-03T10:04:04.693Z,7.35
2022-12-03T10:06:34.257Z,7.42
2022-12-03T10:09:02.565Z,7.47
2022-12-03T10:11:32.186Z,7.34
2022-12-03T10:14:00.323Z,7.48
2022-12-03T10:16:30.523Z,7.56
2022-12-03T10:19:02.103Z,7.31
2022-12-03T10:21:32.578Z,7.45
2022-12-03T10:24:29.681Z,7.36
2022-12-03T10:26:59.979Z,7.45
2022-12-03T10:29:34.030Z,7.57
2022-12-03T10:32:04.086Z,7.65
2022-12-03T10:34:33.717Z,7.66
2022-12-03T10:37:20.273Z,7.53
2022-12-03T10:39:59.288Z,7.55
2022-12-03T10:42:28.962Z,7.53
2022-12-03T10:45:15.813Z,7.41
2022-12-03T10:47:44.181Z,7.39
2022-12-03T10:50:21.278Z,7.49
2022-12-03T10:52:49.402Z,7.60
2022-12-03T10:55:18.937Z,7.59
2022-12-03T10:57:47.223Z,7.67
2022-12-03T11:00:20.487Z,7.64
2022-12-03T11:02:54.868Z,7.69
2022-12-03T11:05:28.243Z,7.63
2022-12-03T11:07:57.456Z,7.50
2022-12-03T11:10:27.072Z,7.52
2022-12-03T11:13:44.529Z,7.59
2022-12-03T11:16:13.683Z,7.57
2022-12-03T11:19:02.535Z,7.62
2022-12-03T11:21:30.906Z,7.69
2022-12-03T11:24:21.576Z,7.73
2022-12-03T11:27:20.941Z,7.77
2022-12-03T11:30:10.501Z,7.72
2022-12-03T11:33:06.336Z,7.69
2022-12-03T11:36:07.218Z,7.71
2022-12-03T11:38:52.887Z,7.74
2022-12-03T11:41:29.780Z,7.82
2022-12-03T11:44:30.609Z,7.51
2022-12-03T11:47:00.805Z,7.72
2022-12-03T11:49:46.939Z,7.65
2022-12-03T11:52:28.800Z,7.72
2022-12-03T11:55:02.861Z,7.71
2022-12-03T11:57:34.763Z,7.50
2022-12-03T12:00:09.185Z,7.56
2022-12-03T12:02:37.385Z,7.61
2022-12-03T12:05:21.039Z,7.54
2022-12-03T12:07:49.628Z,7.59
2022-12-03T12:10:43.323Z,7.52
2022-12-03T12:13:27.928Z,7.48
2022-12-03T12:15:57.330Z,7.43
2022-12-03T12:18:36.253Z,7.35
2022-12-03T12:21:47.974Z,7.53
2022-12-03T12:24:40.109Z,7.59
2022-12-03T12:27:10.772Z,7.58
2022-12-03T12:29:40.270Z,7.57
2022-12-03T12:32:15.886Z,7.66
2022-12-03T12:34:45.374Z,7.63
2022-12-03T12:37:15.462Z,7.64
2022-12-03T12:39:43.496Z,7.64
2022-12-03T12:42:36.077Z,7.62
2022-12-03T12:45:14.479Z,7.56
2022-12-03T12:47:49.913Z,7.56
2022-12-03T12:50:19.576Z,7.62
2022-12-03T12:52:53.905Z,7.68
2022-12-03T12:55:23.943Z,7.52
2022-12-03T12:57:52.577Z,7.55
2022-12-03T13:00:24.007Z,7.52
2022-12-03T13:02:57.875Z,7.50
2022-12-03T13:05:27.893Z,7.55
2022-12-03T13:07:56.244Z,7.56
2022-12-03T13:10:42.068Z,7.52
2022-12-03T13:13:17.449Z,7.44
2022-12-03T13:15:50.777Z,7.54
2022-12-03T13:18:27.151Z,7.43
2022-12-03T13:20:56.079Z,7.43
2022-12-03T13:23:33.107Z,7.24
2022-12-03T13:26:23.659Z,7.22
2022-12-03T13:28:58.231Z,7.26
2022-12-03T13:31:28.683Z,7.17
2022-12-03T13:34:00.693Z,7.17
2022-12-03T13:36:38.219Z,7.02
2022-12-03T13:39:20.017Z,7.02
2022-12-03T13:42:05.713Z,7.02
2022-12-03T13:44:34.674Z,7.06
2022-12-03T13:47:12.907Z,7.10
2022-12-03T13:49:42.683Z,7.11
2022-12-03T13:52:16.889Z,7.20
2022-12-03T13:54:44.836Z,7.26
2022-12-03T13:57:12.748Z,7.36
2022-12-03T13:59:40.754Z,7.35
2022-12-03T14:02:10.016Z,7.27
2022-12-03T14:04:38.317Z,7.28
2022-12-03T14:07:07.742Z,7.14
2022-12-03T14:09:35.764Z,7.27
2022-12-03T14:12:21.485Z,7.19
2022-12-03T14:14:49.624Z,7.23
2022-12-03T14:17:17.947Z,7.25
2022-12-03T14:20:01.984Z,7.27
2022-12-03T14:22:32.030Z,7.33
2022-12-03T14:25:00.086Z,7.34
2022-12-03T14:27:28.570Z,7.21
2022-12-03T14:29:56.943Z,7.35
2022-12-03T14:32:25.421Z,7.29
2022-12-03T14:34:53.750Z,7.30
2022-12-03T14:37:21.790Z,7.30
2022-12-03T14:39:52.027Z,7.40
2022-12-03T14:42:20.765Z,7.34
2022-12-03T14:44:51.312Z,7.32
2022-12-03T14:47:22.659Z,7.35
2022-12-03T14:49:52.035Z,7.44
2022-12-03T14:52:20.724Z,7.42
2022-12-03T14:54:50.673Z,7.35
2022-12-03T14:57:18.685Z,7.33
2022-12-03T14:59:47.236Z,7.28
2022-12-03T15:02:15.406Z,7.29
2022-12-03T15:04:43.449Z,7.34
2022-12-03T15:07:11.678Z,7.36
2022-12-03T15:09:41.160Z,7.18
2022-12-03T15:12:10.691Z,7.12
2022-12-03T15:14:38.782Z,7.25
2022-12-03T15:17:07.110Z,7.19
2022-12-03T15:19:35.785Z,7.18
2022-12-03T15:22:03.896Z,7.25
2022-12-03T15:24:32.076Z,7.26
2022-12-03T15:27:00.644Z,7.19
2022-12-03T15:29:30.327Z,7.30
2022-12-03T15:31:59.508Z,7.28
2022-12-03T15:34:30.359Z,7.28
2022-12-03T15:36:59.495Z,7.24
2022-12-03T15:39:28.035Z,7.28
2022-12-03T15:41:58.763Z,7.20
2022-12-03T15:44:27.308Z,7.18
2022-12-03T15:46:57.949Z,7.11
2022-12-03T15:49:26.604Z,7.09
2022-12-03T15:51:54.727Z,7.22
2022-12-03T15:54:23.085Z,7.12
2022-12-03T15:56:56.868Z,7.19
2022-12-03T15:59:25.570Z,7.11
2022-12-03T16:01:54.382Z,7.10
2022-12-03T16:04:24.049Z,7.06
2022-12-03T16:06:52.346Z,6.93
2022-12-03T16:09:26.744Z,7.03
2022-12-03T16:14:52.240Z,6.98
2022-12-03T16:20:18.787Z,6.85
2022-12-03T16:22:46.906Z,6.81
2022-12-03T16:25:14.981Z,6.98
2022-12-03T16:27:43.684Z,6.92
2022-12-03T16:30:13.048Z,6.93
2022-12-03T16:32:41.827Z,6.94
2022-12-03T16:35:11.369Z,6.93
2022-12-03T16:37:41.327Z,6.89
2022-12-03T16:40:11.370Z,6.93
2022-12-03T16:42:39.763Z,7.00
2022-12-03T16:45:23.153Z,7.00
2022-12-03T16:47:51.506Z,6.93
2022-12-03T16:53:07.057Z,7.03
2022-12-03T16:55:36.425Z,7.13
2022-12-03T16:58:06.954Z,7.08
2022-12-03T17:00:35.053Z,7.13
2022-12-03T17:03:03.501Z,7.12
2022-12-03T17:05:32.038Z,7.20
2022-12-03T17:10:45.533Z,7.18
2022-12-03T17:13:14.075Z,7.25
2022-12-03T17:15:43.317Z,7.12
2022-12-03T17:18:12.509Z,7.17
2022-12-03T17:20:40.918Z,7.15
2022-12-03T17:23:09.660Z,7.18
2022-12-03T17:25:37.967Z,7.19
2022-12-03T17:28:22.954Z,7.09
2022-12-03T17:30:54.718Z,7.20
2022-12-03T17:33:24.367Z,7.12
2022-12-03T17:35:54.174Z,7.15
2022-12-03T17:38:22.789Z,7.04
2022-12-03T17:40:51.430Z,7.14
2022-12-03T17:43:21.219Z,7.20
2022-12-03T17:45:49.328Z,7.11
2022-12-03T17:48:17.467Z,7.12
2022-12-03T17:50:45.944Z,7.09
2022-12-03T17:53:18.463Z,7.19
2022-12-03T17:55:47.856Z,7.23
2022-12-03T17:58:16.379Z,7.20
2022-12-03T18:00:47.756Z,7.24
2022-12-03T18:03:16.893Z,7.19
2022-12-03T18:05:45.104Z,7.22
2022-12-03T18:08:17.606Z,7.16
2022-12-03T18:10:46.162Z,7.25
2022-12-03T18:13:14.507Z,7.19
2022-12-03T18:15:43.323Z,7.17
2022-12-03T18:18:15.486Z,7.19
2022-12-03T18:20:43.744Z,7.16
2022-12-03T18:23:12.611Z,7.13
2022-12-03T18:25:46.591Z,7.20
2022-12-03T18:28:27.710Z,7.22
2022-12-03T18:30:55.695Z,7.22
2022-12-03T18:33:40.339Z,7.09
2022-12-03T18:36:15.111Z,7.05
2022-12-03T18:38:43.269Z,7.09
2022-12-03T18:41:11.557Z,7.03
2022-12-03T18:43:44.166Z,6.92
2022-12-03T18:46:45.176Z,6.94
2022-12-03T18:49:08.393Z,6.97
2022-12-03T18:51:36.948Z,6.96
2022-12-03T18:54:05.634Z,6.92
2022-12-03T18:56:33.768Z,6.91
2022-12-03T18:59:02.743Z,6.96
2022-12-03T19:01:30.783Z,6.95
2022-12-03T19:03:59.230Z,6.93
2022-12-03T19:06:30.644Z,6.98
2022-12-03T19:08:59.640Z,6.97
2022-12-03T19:11:27.726Z,6.95
2022-12-03T19:13:57.400Z,6.93
2022-12-03T19:16:25.627Z,6.83
2022-12-03T19:18:54.471Z,6.77
2022-12-03T19:21:23.211Z,6.84
2022-12-03T19:24:22.635Z,6.80
2022-12-03T19:26:42.360Z,6.79
2022-12-03T19:29:10.918Z,6.80
2022-12-03T19:31:39.354Z,6.85
2022-12-03T19:34:07.559Z,6.84
2022-12-03T19:36:35.564Z,6.78
2022-12-03T19:39:05.166Z,6.81
2022-12-03T19:41:33.285Z,6.73
2022-12-03T19:44:04.069Z,6.64
2022-12-03T19:46:35.865Z,6.69
2022-12-03T19:49:05.027Z,6.63
2022-12-03T19:51:35.055Z,6.79
2022-12-03T19:54:06.521Z,6.68
2022-12-03T19:56:35.606Z,6.64
2022-12-03T19:59:05.093Z,6.58
2022-12-03T20:01:40.918Z,6.51
2022-12-03T20:04:10.745Z,6.52
2022-12-03T20:06:39.211Z,6.54
2022-12-03T20:09:11.550Z,6.47
2022-12-03T20:11:42.030Z,6.43
2022-12-03T20:14:14.045Z,6.48
2022-12-03T20:16:42.682Z,6.53
2022-12-03T20:19:13.688Z,6.60
2022-12-03T20:21:41.856Z,6.57
2022-12-03T20:24:14.086Z,6.61
2022-12-03T20:26:42.905Z,6.53
2022-12-03T20:29:10.889Z,6.58
2022-12-03T20:31:39.308Z,6.50
2022-12-03T20:34:07.428Z,6.55
2022-12-03T20:36:40.945Z,6.50
2022-12-03T20:39:09.443Z,6.60
2022-12-03T20:41:39.902Z,6.55
2022-12-03T20:44:08.598Z,6.61
2022-12-03T20:46:37.424Z,6.58
2022-12-03T20:49:07.219Z,6.53
2022-12-03T20:51:35.647Z,6.56
2022-12-03T20:54:04.341Z,6.67
2022-12-03T20:56:34.736Z,6.64
2022-12-03T20:59:06.512Z,6.60
2022-12-03T21:01:36.241Z,6.53
2022-12-03T21:04:05.627Z,6.42
2022-12-03T21:06:38.125Z,6.37
2022-12-03T21:09:07.983Z,6.42
2022-12-03T21:11:39.194Z,6.29
2022-12-03T21:14:09.632Z,6.35
2022-12-03T21:17:10.439Z,6.36
2022-12-03T21:19:28.657Z,6.27
2022-12-03T21:21:56.752Z,6.20
2022-12-03T21:24:24.779Z,6.19
2022-12-03T21:26:52.900Z,6.17
2022-12-03T21:29:22.361Z,6.10
2022-12-03T21:31:50.480Z,6.02
2022-12-03T21:34:18.554Z,6.09
2022-12-03T21:36:46.643Z,6.05
2022-12-03T21:39:14.883Z,6.00
2022-12-03T21:42:33.909Z,5.98
2022-12-03T21:44:32.700Z,5.96
2022-12-03T21:47:09.218Z,5.93
2022-12-03T21:49:42.216Z,5.88
2022-12-03T21:52:10.608Z,5.77
2022-12-03T21:54:38.709Z,5.84
2022-12-03T21:57:06.793Z,5.77
2022-12-03T21:59:36.264Z,5.79
2022-12-03T22:02:04.641Z,5.77
2022-12-03T22:04:32.776Z,5.66
2022-12-03T22:07:00.913Z,5.71
2022-12-03T22:09:29.032Z,5.66
2022-12-03T22:11:59.400Z,5.68
2022-12-03T22:14:27.488Z,5.63
2022-12-03T22:16:57.045Z,5.70
2022-12-03T22:19:25.608Z,5.66
2022-12-03T22:21:53.854Z,5.62
2022-12-03T22:24:24.000Z,5.54
2022-12-03T22:26:54.772Z,5.61
2022-12-03T22:29:22.940Z,5.46
2022-12-03T22:31:51.220Z,5.47
2022-12-03T22:34:20.749Z,5.57
2022-12-03T22:36:48.817Z,5.59
2022-12-03T22:39:16.830Z,5.61
2022-12-03T22:41:44.817Z,5.47
2022-12-03T22:44:12.898Z,5.50
2022-12-03T22:46:41.072Z,5.60
2022-12-03T22:49:09.174Z,5.57
2022-12-03T22:51:38.605Z,5.53
2022-12-03T22:54:07.238Z,5.56
2022-12-03T22:56:35.299Z,5.53
2022-12-03T22:59:03.418Z,5.50
2022-12-03T23:01:33.123Z,5.35
2022-12-03T23:04:01.908Z,5.37
2022-12-03T23:06:30.693Z,5.43
2022-12-03T23:09:00.507Z,5.38
2022-12-03T23:11:29.119Z,5.40
2022-12-03T23:13:58.952Z,5.37
2022-12-03T23:16:29.883Z,5.38
2022-12-03T23:18:59.215Z,5.38
2022-12-03T23:21:30.720Z,5.38
2022-12-03T23:24:00.461Z,5.37
2022-12-03T23:26:29.196Z,5.40
2022-12-03T23:28:57.685Z,5.43
2022-12-03T23:31:27.807Z,5.36
2022-12-03T23:33:56.621Z,5.40
2022-12-03T23:36:25.854Z,5.42
2022-12-03T23:38:53.752Z,5.37
2022-12-03T23:41:24.098Z,5.37
2022-12-03T23:43:52.213Z,5.35
2022-12-03T23:46:21.556Z,5.36
2022-12-03T23:48:49.822Z,5.38
2022-12-03T23:51:20.149Z,5.42
2022-12-03T23:53:48.526Z,5.36
2022-12-03T23:56:18.619Z,5.40
2022-12-03T23:58:48.486Z,5.41
